Time;durP1;ratioP1;P1;durP2;ratioP2;P2;SDS_P1;SDS_P2;PMS_P1;PMS_P2;Temp;Humidity;BMP_temperature;BMP_pressure;BME280_temperature;BME280_humidity;BME280_pressure;Samples;Min_cycle;Max_cycle;Signal;HPM_P1;HPM_P2
2022/06/07 00:00:34;;;;;;;8.50;5.75;;;;;;;;;;5015083;28;20029;-69
2022/06/07 00:03:00;;;;;;;6.38;5.40;;;;;;;;;;5015193;28;20032;-69
2022/06/07 00:05:26;;;;;;;6.78;6.07;;;;;;;;;;5014943;28;20026;-69
2022/06/07 00:07:54;;;;;;;6.43;5.45;;;;;;;;;;5014831;28;20089;-69
2022/06/07 00:10:21;;;;;;;8.55;5.88;;;;;;;;;;5014946;28;20096;-69
2022/06/07 00:12:47;;;;;;;7.57;5.82;;;;;;;;;;5015152;28;20029;-69
2022/06/07 00:15:13;;;;;;;7.80;5.70;;;;;;;;;;5014698;28;20108;-69
2022/06/07 00:17:40;;;;;;;7.28;5.72;;;;;;;;;;5014909;28;20378;-69
2022/06/07 00:20:07;;;;;;;6.75;5.53;;;;;;;;;;5014877;28;20056;-69
2022/06/07 00:22:34;;;;;;;12.13;5.82;;;;;;;;;;5014691;28;20128;-69
2022/06/07 00:25:00;;;;;;;11.10;5.80;;;;;;;;;;5014408;28;20092;-69
2022/06/07 00:27:26;;;;;;;7.68;5.60;;;;;;;;;;5014948;28;20042;-69
2022/06/07 00:29:52;;;;;;;6.47;5.53;;;;;;;;;;5014613;28;20022;-69
2022/06/07 00:32:20;;;;;;;6.85;5.68;;;;;;;;;;5014622;28;20057;-69
2022/06/07 00:34:47;;;;;;;8.10;5.55;;;;;;;;;;5014226;28;20064;-69
2022/06/07 00:37:13;;;;;;;8.27;5.70;;;;;;;;;;5014420;28;20500;-69
2022/06/07 00:39:39;;;;;;;6.50;5.90;;;;;;;;;;5014426;28;20033;-69
2022/06/07 00:42:05;;;;;;;6.78;5.72;;;;;;;;;;5014303;28;20384;-69
2022/06/07 00:44:33;;;;;;;6.75;5.60;;;;;;;;;;5012832;28;20040;-69
2022/06/07 00:47:00;;;;;;;6.30;5.45;;;;;;;;;;5012928;28;20084;-68
2022/06/07 00:49:27;;;;;;;7.63;5.30;;;;;;;;;;5014144;28;20021;-67
2022/06/07 00:51:53;;;;;;;7.80;6.28;;;;;;;;;;5014113;28;20038;-68
2022/06/07 00:54:24;;;;;;;7.75;5.15;;;;;;;;;;5014140;28;20381;-67
2022/06/07 00:56:51;;;;;;;7.10;5.97;;;;;;;;;;5014058;28;20109;-67
2022/06/07 00:59:17;;;;;;;7.32;5.57;;;;;;;;;;5014305;28;20037;-68
2022/06/07 01:01:43;;;;;;;8.23;5.40;;;;;;;;;;5013877;28;20109;-67
2022/06/07 01:04:09;;;;;;;10.38;5.32;;;;;;;;;;5014236;28;20026;-67
2022/06/07 01:12:05;;;;;;;6.72;5.22;;;;;;;;;;5014118;28;20552;-67
2022/06/07 01:14:31;;;;;;;8.07;5.57;;;;;;;;;;5013817;28;20034;-67
2022/06/07 01:16:58;;;;;;;6.93;5.25;;;;;;;;;;5013644;28;20022;-67
2022/06/07 01:19:24;;;;;;;8.55;5.70;;;;;;;;;;5013930;28;20048;-67
2022/06/07 01:21:50;;;;;;;7.22;5.32;;;;;;;;;;5013462;28;20032;-67
2022/06/07 01:24:17;;;;;;;8.65;5.60;;;;;;;;;;5013269;28;20054;-67
2022/06/07 01:26:44;;;;;;;6.53;5.88;;;;;;;;;;5013435;28;20496;-67
2022/06/07 01:29:11;;;;;;;8.35;5.53;;;;;;;;;;5013519;28;20387;-67
2022/06/07 01:31:37;;;;;;;6.47;4.65;;;;;;;;;;5013523;28;20053;-67
2022/06/07 01:34:03;;;;;;;6.97;5.50;;;;;;;;;;5013470;28;20083;-67
2022/06/07 01:36:30;;;;;;;6.55;5.75;;;;;;;;;;5013388;28;20055;-67
2022/06/07 01:41:53;;;;;;;9.57;5.38;;;;;;;;;;5013615;28;20099;-67
2022/06/07 01:44:20;;;;;;;7.57;5.32;;;;;;;;;;5013659;28;20038;-67
2022/06/07 01:46:46;;;;;;;9.65;5.30;;;;;;;;;;5013196;28;20025;-67
2022/06/07 01:49:12;;;;;;;7.47;5.30;;;;;;;;;;5013292;28;20503;-67
2022/06/07 01:51:38;;;;;;;10.30;5.47;;;;;;;;;;5013074;28;20504;-67
2022/06/07 01:54:05;;;;;;;6.35;5.57;;;;;;;;;;5013418;28;20036;-67
2022/06/07 01:56:31;;;;;;;8.25;5.45;;;;;;;;;;5013259;28;20057;-67
2022/06/07 01:58:57;;;;;;;8.18;5.63;;;;;;;;;;5013395;28;20053;-67
2022/06/07 02:01:24;;;;;;;8.27;5.60;;;;;;;;;;5013077;28;20045;-68
2022/06/07 02:03:50;;;;;;;6.93;5.05;;;;;;;;;;5013619;28;20032;-67
2022/06/07 02:06:16;;;;;;;5.75;4.93;;;;;;;;;;5013639;28;20392;-67
2022/06/07 02:08:42;;;;;;;8.05;5.68;;;;;;;;;;5017172;28;20053;-67
2022/06/07 02:11:10;;;;;;;6.95;5.63;;;;;;;;;;5017116;28;20018;-67
2022/06/07 02:13:37;;;;;;;8.95;6.28;;;;;;;;;;5015491;28;20539;-67
2022/06/07 02:16:03;;;;;;;8.65;5.25;;;;;;;;;;5017103;28;20485;-67
2022/06/07 02:18:29;;;;;;;8.00;5.45;;;;;;;;;;5016996;28;20465;-67
2022/06/07 02:20:57;;;;;;;10.65;5.38;;;;;;;;;;5016690;28;20148;-67
2022/06/07 02:23:23;;;;;;;5.93;5.43;;;;;;;;;;5016705;28;20108;-67
2022/06/07 02:25:50;;;;;;;6.63;5.10;;;;;;;;;;5016805;28;20044;-67
2022/06/07 02:28:17;;;;;;;7.10;5.50;;;;;;;;;;5016696;28;20480;-67
2022/06/07 02:30:44;;;;;;;8.25;5.78;;;;;;;;;;5016734;28;20030;-67
2022/06/07 02:33:10;;;;;;;10.60;7.07;;;;;;;;;;5017255;28;20026;-67
2022/06/07 02:35:39;;;;;;;7.97;6.07;;;;;;;;;;5016424;28;20022;-67
2022/06/07 02:38:05;;;;;;;11.15;5.95;;;;;;;;;;5016619;28;20109;-67
2022/06/07 02:40:32;;;;;;;7.20;5.97;;;;;;;;;;5016812;28;20025;-67
2022/06/07 02:42:58;;;;;;;8.60;5.72;;;;;;;;;;5016838;28;20377;-67
2022/06/07 02:45:24;;;;;;;8.10;6.05;;;;;;;;;;5016708;28;20032;-67
2022/06/07 02:47:50;;;;;;;7.60;5.40;;;;;;;;;;5016327;28;20034;-67
2022/06/07 02:50:16;;;;;;;6.68;5.53;;;;;;;;;;5016411;28;20023;-67
2022/06/07 02:52:43;;;;;;;8.70;5.90;;;;;;;;;;5016344;28;20056;-67
2022/06/07 02:55:09;;;;;;;8.73;5.63;;;;;;;;;;5016570;28;20493;-67
2022/06/07 02:57:36;;;;;;;8.55;5.97;;;;;;;;;;5016089;28;20373;-67
2022/06/07 03:00:02;;;;;;;8.10;5.80;;;;;;;;;;5016206;28;20026;-67
2022/06/07 03:02:28;;;;;;;7.72;6.18;;;;;;;;;;5016189;28;20040;-67
2022/06/07 03:04:54;;;;;;;9.50;5.45;;;;;;;;;;5016145;28;20461;-67
2022/06/07 03:07:20;;;;;;;7.40;5.97;;;;;;;;;;5016363;28;20041;-67
2022/06/07 03:09:46;;;;;;;8.23;5.50;;;;;;;;;;5016207;28;20063;-67
2022/06/07 03:12:12;;;;;;;6.55;5.95;;;;;;;;;;5016069;28;20072;-67
2022/06/07 03:14:39;;;;;;;6.90;5.70;;;;;;;;;;5015982;28;20384;-67
2022/06/07 03:17:06;;;;;;;7.63;5.63;;;;;;;;;;5016321;28;20030;-67
2022/06/07 03:19:32;;;;;;;7.30;5.70;;;;;;;;;;5015934;28;20076;-67
2022/06/07 03:21:59;;;;;;;9.10;5.43;;;;;;;;;;5015554;28;20030;-67
2022/06/07 03:24:26;;;;;;;7.75;5.53;;;;;;;;;;5016035;28;20049;-67
2022/06/07 03:26:52;;;;;;;5.95;5.28;;;;;;;;;;5015614;28;20034;-67
2022/06/07 03:29:18;;;;;;;11.40;5.43;;;;;;;;;;5015850;28;20029;-68
2022/06/07 03:31:45;;;;;;;7.03;5.53;;;;;;;;;;5015697;28;20026;-68
2022/06/07 03:34:11;;;;;;;7.35;5.43;;;;;;;;;;5015670;28;20026;-69
2022/06/07 03:36:37;;;;;;;10.15;5.70;;;;;;;;;;5015232;28;20034;-67
2022/06/07 03:39:07;;;;;;;7.03;5.55;;;;;;;;;;5015552;28;20017;-67
2022/06/07 03:41:33;;;;;;;13.45;5.70;;;;;;;;;;5015419;28;20030;-68
2022/06/07 03:43:59;;;;;;;6.63;5.95;;;;;;;;;;5015434;28;20033;-68
2022/06/07 03:46:27;;;;;;;8.27;5.32;;;;;;;;;;5015475;28;20030;-68
2022/06/07 03:48:53;;;;;;;13.73;5.70;;;;;;;;;;5015397;28;20037;-68
2022/06/07 03:51:20;;;;;;;7.88;6.03;;;;;;;;;;5015032;28;20022;-68
2022/06/07 03:53:46;;;;;;;10.13;6.05;;;;;;;;;;5015194;28;20041;-67
2022/06/07 03:56:14;;;;;;;6.53;5.60;;;;;;;;;;5015198;28;20065;-68
2022/06/07 03:58:41;;;;;;;8.80;5.47;;;;;;;;;;5015194;28;20018;-68
2022/06/07 04:01:08;;;;;;;8.20;5.95;;;;;;;;;;5015150;28;20057;-68
2022/06/07 04:03:35;;;;;;;6.30;5.50;;;;;;;;;;5015276;28;20115;-67
2022/06/07 04:06:01;;;;;;;7.85;5.82;;;;;;;;;;5014811;28;20105;-67
2022/06/07 04:08:27;;;;;;;8.07;6.38;;;;;;;;;;5014896;28;20061;-67
2022/06/07 04:11:00;;;;;;;7.18;5.78;;;;;;;;;;5015087;28;20030;-67
2022/06/07 04:13:27;;;;;;;7.88;6.20;;;;;;;;;;5014871;28;20026;-67
2022/06/07 04:15:54;;;;;;;10.45;5.80;;;;;;;;;;5014855;28;20121;-67
2022/06/07 04:18:20;;;;;;;9.70;5.90;;;;;;;;;;5014818;28;20025;-67
2022/06/07 04:20:47;;;;;;;9.95;6.22;;;;;;;;;;5014564;28;20056;-67
2022/06/07 04:23:18;;;;;;;9.05;6.22;;;;;;;;;;5014583;28;20040;-68
2022/06/07 04:25:44;;;;;;;10.73;5.90;;;;;;;;;;5014548;28;20042;-67
2022/06/07 04:28:10;;;;;;;6.35;5.43;;;;;;;;;;5014859;28;20404;-67
2022/06/07 04:30:37;;;;;;;7.68;5.85;;;;;;;;;;5014067;28;20049;-67
2022/06/07 04:33:03;;;;;;;8.15;6.00;;;;;;;;;;5014497;28;20477;-67
2022/06/07 04:35:29;;;;;;;10.30;5.88;;;;;;;;;;5014309;28;20037;-67
2022/06/07 04:37:55;;;;;;;9.40;7.00;;;;;;;;;;5012558;28;20566;-68
2022/06/07 04:40:22;;;;;;;11.82;6.90;;;;;;;;;;5014595;28;20030;-67
2022/06/07 04:42:48;;;;;;;12.70;7.53;;;;;;;;;;5014367;28;20076;-67
2022/06/07 04:45:15;;;;;;;14.00;6.70;;;;;;;;;;5014044;28;20021;-68
2022/06/07 04:47:42;;;;;;;12.23;6.35;;;;;;;;;;5014179;28;20033;-67
2022/06/07 04:50:13;;;;;;;15.57;8.65;;;;;;;;;;5014594;28;20421;-67
2022/06/07 04:52:39;;;;;;;11.43;7.55;;;;;;;;;;5014238;28;20104;-67
2022/06/07 04:55:06;;;;;;;18.45;7.75;;;;;;;;;;5014580;28;20445;-67
2022/06/07 04:57:32;;;;;;;9.32;6.72;;;;;;;;;;5013987;28;20038;-67
2022/06/07 04:59:58;;;;;;;19.40;7.63;;;;;;;;;;5013932;28;20105;-68
2022/06/07 05:02:24;;;;;;;13.00;7.57;;;;;;;;;;5013815;28;20084;-67
2022/06/07 05:04:50;;;;;;;10.35;6.57;;;;;;;;;;5013625;28;20030;-68
2022/06/07 05:07:16;;;;;;;10.13;6.72;;;;;;;;;;5013814;28;20040;-68
2022/06/07 05:09:42;;;;;;;15.52;6.95;;;;;;;;;;5013965;28;20025;-67
2022/06/07 05:12:09;;;;;;;13.07;7.07;;;;;;;;;;5013800;28;20480;-67
2022/06/07 05:14:35;;;;;;;12.30;7.30;;;588.80;2432.00;;;;;;5013772;28;20018;-67
2022/06/07 05:17:01;;;;;;;11.48;7.43;;;564.10;2432.00;;;;;;5013780;28;20030;-67
2022/06/07 05:19:33;;;;;;;12.80;8.30;;;588.80;2432.00;;;;;;5013865;28;20497;-68
2022/06/07 05:22:00;;;;;;;20.15;8.93;;;588.90;2432.00;;;;;;5013592;28;20018;-68
2022/06/07 05:24:26;;;;;;;15.10;8.10;;;589.10;2432.00;;;;;;5012021;28;20500;-67
2022/06/07 05:26:54;;;;;;;11.10;8.15;;;;;;;;;;5013416;28;20037;-68
2022/06/07 05:29:43;;;;;;;9.40;7.63;;;;;;;;;;5013573;28;20026;-68
2022/06/07 05:32:09;;;;;;;20.67;8.20;;;;;;;;;;5013572;28;20484;-67
2022/06/07 05:34:35;;;;;;;20.00;7.63;;;;;;;;;;5013212;28;20026;-68
2022/06/07 05:37:01;;;;;;;14.48;7.43;;;;;;;;;;5013092;28;20058;-67
2022/06/07 05:39:28;;;;;;;13.10;7.45;;;;;;;;;;5013553;28;20389;-67
2022/06/07 05:41:54;;;;;;;17.05;8.35;;;;;;;;;;5012376;28;20053;-67
2022/06/07 05:44:21;;;;;;;22.63;7.55;;;;;;;;;;5013280;28;20073;-67
2022/06/07 05:46:48;;;;;;;12.40;6.63;;;;;;;;;;5012864;28;20022;-67
2022/06/07 05:49:14;;;;;;;8.85;7.03;;;;;;;;;;5013154;28;20064;-67
2022/06/07 05:51:40;;;;;;;18.25;8.43;;;;;;;;;;5013097;28;20122;-68
2022/06/07 05:54:07;;;;;;;18.40;7.40;;;;;;;;;;5013343;28;20038;-68
2022/06/07 05:56:33;;;;;;;21.48;7.95;;;;;;;;;;5013199;28;20041;-68
2022/06/07 05:59:00;;;;;;;15.13;7.45;;;;;;;;;;5013044;28;20029;-67
2022/06/07 06:01:27;;;;;;;13.40;7.57;;;;;;;;;;5012879;28;20030;-68
2022/06/07 06:03:55;;;;;;;29.60;8.70;;;;;;;;;;5013130;28;20489;-68
2022/06/07 06:06:22;;;;;;;11.63;7.40;;;;;;;;;;5013136;28;20022;-68
2022/06/07 06:11:33;;;;;;;11.55;7.10;;;;;;;;;;5013589;28;20100;-68
2022/06/07 06:13:59;;;;;;;13.15;6.78;;;;;;;;;;5012980;28;20038;-68
2022/06/07 06:16:26;;;;;;;17.73;7.85;;;;;;;;;;5011999;28;20117;-68
2022/06/07 06:18:54;;;;;;;11.32;7.03;;;;;;;;;;5012965;28;20057;-67
2022/06/07 06:21:22;;;;;;;9.77;7.00;;;;;;;;;;5012869;28;20018;-67
2022/06/07 06:23:48;;;;;;;11.48;6.97;;;;;;;;;;5012511;28;20049;-67
2022/06/07 06:26:15;;;;;;;55.13;12.52;;;;;;;;;;5012896;28;20037;-68
2022/06/07 06:28:42;;;;;;;10.05;6.80;;;;;;;;;;5012845;28;20038;-67
2022/06/07 06:31:09;;;;;;;11.30;7.15;;;;;;;;;;5012837;28;20029;-68
2022/06/07 06:33:39;;;;;;;19.65;8.13;;;;;;;;;;5012727;28;20081;-67
2022/06/07 06:36:07;;;;;;;17.15;9.27;;;;;;;;;;5012807;28;20022;-67
2022/06/07 06:38:33;;;;;;;16.05;8.00;;;;;;;;;;5012707;28;20026;-68
2022/06/07 06:40:59;;;;;;;14.40;7.35;;;;;;;;;;5012589;28;20049;-68
2022/06/07 06:43:25;;;;;;;30.08;8.93;;;;;;;;;;5012468;28;20022;-67
2022/06/07 06:45:51;;;;;;;18.17;8.80;;;;;;;;;;5012923;28;20396;-68
2022/06/07 06:48:17;;;;;;;11.65;7.20;;;;;;;;;;5012500;28;20042;-67
2022/06/07 06:50:43;;;;;;;10.90;7.00;;;;;;;;;;5012726;28;20489;-67
2022/06/07 06:53:09;;;;;;;10.90;7.93;;;;;;;;;;5014571;28;20045;-68
2022/06/07 06:55:35;;;;;;;22.33;7.90;;;;;;;;;;5016258;28;20433;-68
2022/06/07 06:58:02;;;;;;;10.82;7.38;;;;;;;;;;5016188;28;20053;-67
2022/06/07 07:00:28;;;;;;;14.65;8.20;;;;;;;;;;5016161;28;20079;-67
2022/06/07 07:02:54;;;;;;;15.63;7.93;;;;;;;;;;5016093;28;20091;-68
2022/06/07 07:05:20;;;;;;;43.80;10.27;;;;;;;;;;5016276;28;20093;-68
2022/06/07 07:07:47;;;;;;;23.05;8.30;;;;;;;;;;5015884;28;20044;-68
2022/06/07 07:10:13;;;;;;;13.05;7.43;;;;;;;;;;5016246;28;20509;-68
2022/06/07 07:12:40;;;;;;;9.65;6.47;;;;;;;;;;5015979;28;20036;-68
2022/06/07 07:15:07;;;;;;;7.43;6.57;;;;;;;;;;5014553;28;20029;-68
2022/06/07 07:17:33;;;;;;;7.82;5.97;;;;;;;;;;5015895;28;20108;-68
2022/06/07 07:20:00;;;;;;;15.45;7.40;;;;;;;;;;5015775;28;20026;-68
2022/06/07 07:22:26;;;;;;;20.55;6.70;;;;;;;;;;5015834;28;20377;-68
2022/06/07 07:24:52;;;;;;;6.97;5.97;;;;;;;;;;5015341;28;20501;-67
2022/06/07 07:27:19;;;;;;;10.98;5.97;;;;;;;;;;5015575;28;20077;-67
2022/06/07 07:29:46;;;;;;;29.02;7.88;;;;;;;;;;5015932;28;20022;-68
2022/06/07 07:32:12;;;;;;;9.52;5.65;;;;;;;;;;5015599;28;20080;-68
2022/06/07 07:34:38;;;;;;;12.18;5.43;;;;;;;;;;5015515;28;20028;-68
2022/06/07 07:37:05;;;;;;;8.70;5.72;;;;;;;;;;5015393;28;20021;-68
2022/06/07 07:39:31;;;;;;;10.10;6.60;;;;;;;;;;5015722;28;20476;-68
2022/06/07 07:41:57;;;;;;;13.10;6.63;;;;;;;;;;5015388;28;20022;-68
2022/06/07 07:44:24;;;;;;;8.25;5.53;;;;;;;;;;5015858;28;20124;-68
2022/06/07 07:46:52;;;;;;;7.43;5.45;;;;;;;;;;5015599;28;20449;-69
2022/06/07 07:49:19;;;;;;;19.70;7.78;;;;;;;;;;5015526;28;20428;-67
2022/06/07 07:51:46;;;;;;;9.30;6.65;;;;;;;;;;5015146;28;20113;-68
2022/06/07 07:54:14;;;;;;;18.35;7.05;;;;;;;;;;5015312;28;20038;-67
2022/06/07 07:56:40;;;;;;;19.33;6.97;;;;;;;;;;5015242;28;20029;-67
2022/06/07 07:59:07;;;;;;;15.05;8.10;;;;;;;;;;5014858;28;20018;-67
2022/06/07 08:01:34;;;;;;;10.82;6.53;;;;;;;;;;5015041;28;20076;-68
2022/06/07 08:04:01;;;;;;;8.77;6.47;;;;;;;;;;5014276;28;20053;-68
2022/06/07 08:06:28;;;;;;;21.33;8.27;;;;;;;;;;5014849;28;20030;-68
2022/06/07 08:08:57;;;;;;;14.02;6.30;;;;;;;;;;5014758;28;20030;-68
2022/06/07 08:11:25;;;;;;;11.00;6.53;;;;;;;;;;5015002;28;20076;-68
2022/06/07 08:13:51;;;;;;;11.10;6.40;;;;;;;;;;5014570;28;20503;-68
2022/06/07 08:16:18;;;;;;;11.73;6.53;;;;;;;;;;5014730;28;20018;-68
2022/06/07 08:18:45;;;;;;;21.23;8.10;;;;;;;;;;5014688;28;20550;-68
2022/06/07 08:21:13;;;;;;;9.65;6.07;;;;;;;;;;5014704;28;20476;-69
2022/06/07 08:23:39;;;;;;;10.73;6.15;;;;;;;;;;5014369;28;20041;-68
2022/06/07 08:26:06;;;;;;;15.07;6.97;;;;;;;;;;5014478;28;20052;-68
2022/06/07 08:28:33;;;;;;;11.52;7.03;;;;;;;;;;5014602;28;20080;-68
2022/06/07 08:30:59;;;;;;;10.13;5.93;;;;;;;;;;5014615;28;20018;-68
2022/06/07 08:38:59;;;;;;;9.23;8.32;;;;;;;;;;5014791;28;20056;-68
2022/06/07 08:41:25;;;;;;;11.60;7.97;;;;;;;;;;5014219;28;20469;-68
2022/06/07 08:43:52;;;;;;;12.45;6.78;;;;;;;;;;5014426;28;20452;-68
2022/06/07 08:46:19;;;;;;;7.72;5.85;;;;;;;;;;5014250;28;20018;-68
2022/06/07 08:48:46;;;;;;;6.97;6.28;;;;;;;;;;5014087;28;20457;-68
2022/06/07 08:51:18;;;;;;;25.58;7.40;;;;;;;;;;5012448;28;20404;-68
2022/06/07 08:53:48;;;;;;;24.40;7.50;;;;;;;;;;5013908;28;20030;-68
2022/06/07 08:56:22;;;;;;;10.15;7.05;;;;;;;;;;5013796;28;20026;-68
2022/06/07 08:58:51;;;;;;;20.45;6.68;;;;;;;;;;5014255;28;20033;-68
2022/06/07 09:01:27;;;;;;;12.00;6.07;;;;;;;;;;5013826;28;20025;-68
2022/06/07 09:04:06;;;;;;;18.15;7.35;;;;;;;;;;5013870;28;20022;-68
2022/06/07 09:06:34;;;;;;;11.65;7.43;;;;;;;;;;5014236;28;20022;-68
2022/06/07 09:09:01;;;;;;;11.65;6.55;;;;;;;;;;5013666;28;20041;-68
2022/06/07 09:14:47;;;;;;;8.90;6.22;;;;;;;;;;5013809;28;20512;-68
2022/06/07 09:17:15;;;;;;;12.80;6.90;;;;;;;;;;4934128;29;20044;-68
2022/06/07 09:19:42;;;;;;;24.73;7.68;;;;;;;;;;4933946;29;20132;-68
2022/06/07 09:22:15;;;;;;;25.13;7.85;;;;;;;;;;4933908;29;20027;-68
2022/06/07 09:24:49;;;;;;;17.10;6.68;;;;;;;;;;4933506;29;20452;-68
2022/06/07 09:27:18;;;;;;;11.57;6.82;;;;;;;;;;4933662;29;20074;-68
2022/06/07 09:29:55;;;;;;;10.25;6.25;;;;;;;;;;4933842;29;20020;-68
2022/06/07 09:32:22;;;;;;;18.05;7.05;;;;;;;;;;4917751;29;20036;-69
2022/06/07 09:34:58;;;;;;;14.65;9.18;;;;;;;;;;4933687;29;20036;-68
2022/06/07 09:37:28;;;;;;;10.95;7.15;;;;;;;;;;4933726;29;20054;-68
2022/06/07 09:39:59;;;;;;;13.37;6.40;;;;;;;;;;4933644;29;20055;-68
2022/06/07 09:42:26;;;;;;;13.55;6.00;;;;;;;;;;4933843;29;20039;-68
2022/06/07 09:45:02;;;;;;;15.57;6.18;;;;;;;;;;4933557;29;20032;-68
2022/06/07 09:47:29;;;;;;;15.43;6.68;;;;;;;;;;4933550;29;20047;-68
2022/06/07 09:49:55;;;;;;;10.77;6.63;;;;;;;;;;4933707;29;20036;-68
2022/06/07 09:52:23;;;;;;;7.45;5.80;;;;;;;;;;4933494;29;20114;-68
2022/06/07 09:54:55;;;;;;;10.85;5.85;;;;;;;;;;4994076;28;20041;-68
2022/06/07 09:57:33;;;;;;;8.75;6.05;;;;;;;;;;5012939;28;20034;-68
2022/06/07 10:00:06;;;;;;;8.65;5.65;;;;;;;;;;5013152;28;20456;-68
2022/06/07 10:02:42;;;;;;;13.80;10.13;;;;;;;;;;5013434;28;20063;-67
2022/06/07 10:05:14;;;;;;;15.80;6.63;;;;;;;;;;5012914;28;20025;-68
2022/06/07 10:07:46;;;;;;;14.98;7.20;;;;;;;;;;5012810;28;20036;-69
2022/06/07 10:10:17;;;;;;;10.60;6.82;;;;;;;;;;5012968;28;20026;-68
2022/06/07 10:12:52;;;;;;;9.05;6.18;;;;;;;;;;5012853;28;20022;-68
2022/06/07 10:15:25;;;;;;;9.45;6.40;;;;;;;;;;5012990;28;20403;-68
2022/06/07 10:17:56;;;;;;;8.95;6.57;;;;;;;;;;5012732;28;20018;-68
2022/06/07 10:20:36;;;;;;;17.75;7.47;;;;;;;;;;5013133;28;20113;-68
2022/06/07 10:23:21;;;;;;;7.22;6.07;;;;;;;;;;5012975;28;20104;-68
2022/06/07 10:26:10;;;;;;;9.85;6.47;;;;;;;;;;5013141;28;20053;-68
2022/06/07 10:28:43;;;;;;;6.65;5.80;;;;;;;;;;5005122;28;20396;-68
2022/06/07 10:31:32;;;;;;;6.95;6.25;;;;;;;;;;5016630;28;20034;-69
2022/06/07 10:34:05;;;;;;;9.18;6.90;;;;;;;;;;5016574;28;20018;-69
2022/06/07 10:36:31;;;;;;;8.77;6.70;;;;;;;;;;5016543;28;20033;-68
2022/06/07 10:39:10;;;;;;;8.20;6.97;;;;;;;;;;5016325;28;20030;-68
2022/06/07 10:41:55;;;;;;;7.70;6.13;;;;;;;;;;5016631;28;20068;-68
2022/06/07 10:44:24;;;;;;;8.20;6.10;;;;;;;;;;5016477;28;20480;-68
2022/06/07 10:46:50;;;;;;;9.85;6.68;;;;;;;;;;5016325;28;20038;-68
2022/06/07 10:49:52;;;;;;;8.23;5.82;;;;;;;;;;5016695;28;20491;-68
2022/06/07 10:52:25;;;;;;;7.68;5.50;;;;;;;;;;4936667;29;20434;-68
2022/06/07 10:54:58;;;;;;;7.80;5.43;;;;;;;;;;4936559;29;20047;-68
2022/06/07 10:57:33;;;;;;;8.68;6.35;;;;;;;;;;4936562;29;20035;-68
2022/06/07 11:00:02;;;;;;;7.65;6.63;;;;;;;;;;4936644;29;20043;-69
2022/06/07 11:02:31;;;;;;;7.63;6.60;;;;;;;;;;4936489;29;20030;-68
2022/06/07 11:10:36;;;;;;;8.77;6.25;;;;;;;;;;4936609;29;20103;-68
2022/06/07 11:13:11;;;;;;;9.90;6.28;;;;;;;;;;4936128;29;20042;-69
2022/06/07 11:15:37;;;;;;;7.57;6.80;;;;;;;;;;4936264;29;20467;-69
2022/06/07 11:18:03;;;;;;;10.63;6.75;;;;;;;;;;4936215;29;20054;-69
2022/06/07 11:20:34;;;;;;;15.45;6.65;;;;;;;;;;4936250;29;20051;-69
2022/06/07 11:23:03;;;;;;;8.18;6.90;;;;;;;;;;4935820;29;20127;-69
2022/06/07 11:25:29;;;;;;;10.85;6.78;;;;;;;;;;4946355;28;20050;-68
2022/06/07 11:27:59;;;;;;;8.45;5.88;;;;;;;;;;4995544;28;20555;-69
2022/06/07 11:30:36;;;;;;;9.20;6.30;;;;;;;;;;4996073;28;20026;-69
2022/06/07 11:33:03;;;;;;;10.23;6.13;;;;;;;;;;4995903;28;20551;-69
2022/06/07 11:35:44;;;;;;;8.27;5.90;;;;;;;;;;4996461;28;20440;-70
2022/06/07 11:38:30;;;;;;;9.45;6.40;;;;;;;;;;4995365;28;20022;-70
2022/06/07 11:41:36;;;;;;;6.95;6.25;;;;;;;;;;4995298;28;20110;-70
2022/06/07 11:43:58;;;;;;;9.85;6.40;;;;;;;;;;4995613;28;20380;-70
2022/06/07 11:46:24;;;;;;;9.65;6.65;;;;;;;;;;4995652;28;20035;-70
2022/06/07 11:48:50;;;;;;;10.50;6.53;;;;;;;;;;4995521;28;20078;-70
2022/06/07 11:51:18;;;;;;;14.90;5.60;;;;;;;;;;4995434;28;20077;-70
2022/06/07 11:54:00;;;;;;;16.30;7.07;;;;;;;;;;4995599;28;20030;-70
2022/06/07 11:56:26;;;;;;;7.53;4.88;;;;;;;;;;4995377;28;20436;-69
2022/06/07 11:58:54;;;;;;;6.50;4.72;;;;;;;;;;4995576;28;20014;-69
2022/06/07 12:01:32;;;;;;;9.07;6.03;;;;;;;;;;4995424;28;20105;-70
2022/06/07 12:04:28;;;;;;;9.23;5.90;;;;;;;;;;4995478;28;20101;-69
2022/06/07 12:06:54;;;;;;;6.40;5.60;;;;;;;;;;4995276;28;20038;-69
2022/06/07 12:09:21;;;;;;;7.18;5.13;;;;;;;;;;4995149;28;20026;-69
2022/06/07 12:11:47;;;;;;;7.43;5.70;;;;;;;;;;4995125;28;20022;-69
2022/06/07 12:14:23;;;;;;;6.10;5.45;;;;;;;;;;4995300;28;20536;-69
2022/06/07 12:16:54;;;;;;;10.27;6.53;;;;;;;;;;4995109;28;20104;-70
2022/06/07 12:19:25;;;;;;;9.95;6.22;;;;;;;;;;4995107;28;20058;-70
2022/06/07 12:21:51;;;;;;;;;;;;;;;;;;4995247;28;20015;-70
2022/06/07 12:24:18;;;;;;;11.55;6.80;;;;;;;;;;5001294;28;19992;-70
2022/06/07 12:26:46;;;;;;;17.33;6.55;;;;;;;;;;5014546;28;20033;-69
2022/06/07 12:29:12;;;;;;;8.00;5.75;;;;;;;;;;5014457;28;20029;-70
2022/06/07 12:31:44;;;;;;;9.32;5.80;;;;;;;;;;5014534;28;20034;-69
2022/06/07 12:34:18;;;;;;;7.63;6.22;;;;;;;;;;5014219;28;20044;-70
2022/06/07 12:36:46;;;;;;;8.27;5.88;;;;;;;;;;5014297;28;20515;-70
2022/06/07 12:39:14;;;;;;;12.23;6.35;;;;;;;;;;5014076;28;20018;-70
2022/06/07 12:41:52;;;;;;;6.47;4.78;;;;;;;;;;5014076;28;20108;-69
2022/06/07 12:44:32;;;;;;;19.02;7.07;;;;;;;;;;5014105;28;20385;-70
2022/06/07 12:47:01;;;;;;;10.73;7.63;;;;;;;;;;5013825;28;20475;-70
2022/06/07 12:49:28;;;;;;;9.73;6.60;;;;;;;;;;5014202;28;20073;-69
2022/06/07 12:51:54;;;;;;;9.02;6.03;;;;;;;;;;5013683;28;20480;-70
2022/06/07 12:54:22;;;;;;;14.35;6.95;;;;;;;;;;5014259;28;20106;-69
2022/06/07 12:56:49;;;;;;;11.43;6.13;;;;;;;;;;5013955;28;20096;-69
2022/06/07 12:59:22;;;;;;;7.70;5.40;;;;;;;;;;5013801;28;20062;-70
2022/06/07 13:01:49;;;;;;;12.27;6.05;;;;;;;;;;5013736;28;20052;-70
2022/06/07 13:04:21;;;;;;;8.55;5.75;;;;;;;;;;5013691;28;20033;-70
2022/06/07 13:06:57;;;;;;;7.35;5.40;;;;;;;;;;5013706;28;20022;-69
2022/06/07 13:09:24;;;;;;;7.90;6.20;;;;;;;;;;5013627;28;20037;-70
2022/06/07 13:11:50;;;;;;;8.10;5.70;;;;;;;;;;5013776;28;20018;-70
2022/06/07 13:14:17;;;;;;;9.23;5.75;;;;;;;;;;5013498;28;20030;-70
2022/06/07 13:16:46;;;;;;;13.75;6.53;;;;;;;;;;5013508;28;20076;-69
2022/06/07 13:19:15;;;;;;;10.43;6.32;;;;;;;;;;5013506;28;20569;-70
2022/06/07 13:21:42;;;;;;;15.57;6.57;;;;;;;;;;5013492;28;20030;-69
2022/06/07 13:24:28;;;;;;;13.95;6.60;;;;;;;;;;5013227;28;20056;-70
2022/06/07 13:26:59;;;;;;;54.88;11.45;;;;;;;;;;5013272;28;20040;-70
2022/06/07 13:29:27;;;;;;;10.68;6.03;;;;;;;;;;5013406;28;20476;-70
2022/06/07 13:31:59;;;;;;;18.30;6.45;;;;;;;;;;5013252;28;20046;-69
2022/06/07 13:34:33;;;;;;;6.30;5.43;;;;;;;;;;5013331;28;20443;-70
2022/06/07 13:37:03;;;;;;;25.67;8.20;;;;;;;;;;5013234;28;20488;-70
2022/06/07 13:39:30;;;;;;;8.98;6.75;;;;;;;;;;5013028;28;20072;-70
2022/06/07 13:42:09;;;;;;;8.18;5.20;;;;;;;;;;5013416;28;20026;-70
2022/06/07 13:44:54;;;;;;;11.25;5.85;;;;;;;;;;5013358;28;20053;-69
2022/06/07 13:47:31;;;;;;;9.57;6.72;;;;;;;;;;5013038;28;20033;-70
2022/06/07 13:53:27;;;;;;;10.57;6.18;;;;;;;;;;5009801;28;20092;-70
2022/06/07 13:55:56;;;;;;;19.88;6.82;;;;;;;;;;5013310;28;20491;-70
2022/06/07 13:58:26;;;;;;;49.25;8.55;;;;;;;;;;5012852;28;20021;-70
2022/06/07 14:00:58;;;;;;;13.90;5.97;;;;;;;;;;5013166;28;20041;-70
2022/06/07 14:03:54;;;;;;;24.73;6.97;;;;;;;;;;5011974;28;20042;-70
2022/06/07 14:06:20;;;;;;;7.55;5.97;;;;;;;;;;4933127;29;20123;-70
2022/06/07 14:08:47;;;;;;;24.83;6.45;;;;;;;;;;4933217;29;20494;-69
2022/06/07 14:11:13;;;;;;;16.05;7.22;;;;;;;;;;4917304;29;20039;-70
2022/06/07 14:13:39;;;;;;;10.65;5.47;;;;;;;;;;4933178;29;20030;-69
2022/06/07 14:16:06;;;;;;;14.82;5.85;;;;;;;;;;4933381;28;20042;-69
2022/06/07 14:18:33;;;;;;;17.65;5.70;;;;;;;;;;4933444;29;20038;-70
2022/06/07 14:20:59;;;;;;;12.13;8.07;;;;;;;;;;4933403;29;20043;-69
2022/06/07 14:23:25;;;;;;;28.60;6.82;;;;;;;;;;4933178;29;20116;-69
2022/06/07 14:25:51;;;;;;;17.88;6.22;;;;;;;;;;4933050;29;20491;-69
2022/06/07 14:28:19;;;;;;;6.90;6.07;;;;;;;;;;4933191;29;20047;-69
2022/06/07 14:30:52;;;;;;;12.15;5.22;;;;;;;;;;4933352;29;20031;-70
2022/06/07 14:33:19;;;;;;;12.32;5.68;;;;;;;;;;4933331;29;20071;-69
2022/06/07 14:35:47;;;;;;;9.68;6.07;;;;;;;;;;4933214;29;20054;-69
2022/06/07 14:38:14;;;;;;;24.77;7.95;;;;;;;;;;4933091;29;20432;-69
2022/06/07 14:40:42;;;;;;;9.65;5.45;;;;;;;;;;4933243;29;20031;-69
2022/06/07 14:43:09;;;;;;;9.30;5.95;;;;;;;;;;4987614;28;20057;-70
2022/06/07 14:45:41;;;;;;;10.98;5.90;;;;;;;;;;5012697;28;20022;-69
2022/06/07 14:48:08;;;;;;;11.18;5.03;;;;;;;;;;5012398;28;20083;-69
2022/06/07 14:50:34;;;;;;;5.75;4.35;;;;;;;;;;5012608;28;20030;-69
2022/06/07 14:53:00;;;;;;;21.58;12.60;;;;;;;;;;5012519;28;20030;-70
2022/06/07 14:55:27;;;;;;;12.60;6.13;;;;;;;;;;5012452;28;20388;-69
2022/06/07 14:57:55;;;;;;;6.53;4.32;;;;;;;;;;5012689;28;20436;-70
2022/06/07 15:00:22;;;;;;;14.13;5.53;;;;;;;;;;5013151;28;20399;-70
2022/06/07 15:02:51;;;;;;;10.05;4.70;;;;;;;;;;5012929;28;20022;-69
2022/06/07 15:05:21;;;;;;;15.57;5.75;;;;;;;;;;5012653;28;20026;-69
2022/06/07 15:07:56;;;;;;;10.40;5.35;;;;;;;;;;5012650;28;20169;-69
2022/06/07 15:10:24;;;;;;;8.43;4.80;;;;;;;;;;5012569;28;20392;-69